Terminal Aerodrome Forecast
Issued by NWS Pocatello, ID

Home | Current Version | Previous Version | Text Only | Print | Product List | Glossary On
Versions: 1 2 3 4 5 6 7 8 9 10 11 12 13
000
FTUS45 KPIH 031120
TAFIDA
TAF
KIDA 031120Z 0312/0412 19010KT P6SM BKN150 BKN250
     FM031400 22015G25KT P6SM SCT120
     FM032200 25010G20KT P6SM VCTS SCT090 BKN120CB
     FM040300 VRB06KT P6SM VCSH SCT120 BKN150=

USA.gov is the U.S. government's official web portal to all federal, state and local government web resources and services.